Main page
METAR-TAF:

METAR-TAF

Airports :

Parnaíba-Prefeito Dr. João Silva Filho International Airport

Parnaíba, Piauí, Brazil

latitude: 02-55S, longitude: 041-45W, elevation: 5 m

Current weather observation

The report was made 4 hours and 31 minutes ago, at 21:45 UTC
Wind 7 kt from the East/Northeast
Temperature 27°C
Humidity 84%
Pressure 1011 hPa
Visibility 10 km or more
Few clouds at a height of 1700 ft
Broken clouds at a height of 10000 ft

METAR: SBPB 222145Z 07007KT 9999 FEW017 BKN100 27/24 Q1011

Time: 23:16 (02:16 UTC)

Forecast

The report was made 4 hours and 16 minutes ago, at 22:00 UTC
Forecast valid from 23 at 00 UTC to 23 at 24 UTC
Wind 10 kt from the Southeast
Visibility 10 km or more
Scattered clouds at a height of 2000 ft
Becoming
from 23 at 14 UTC to 23 at 16 UTC
Wind 10 kt from the East/Northeast

TAF: SBPB 222200Z 2300/2324 13010KT 9999 SCT020 TN27/2311Z TX33/2315Z BECMG 2314/2316 07010KT RMK PEI

Weather observations and forecasts of more than 4000 airports (METAR and TAF reports).

The available stations are represented by yellow and red dots on the map.

Hover mouse over dot to see the name of the station.

Then click to see weather observations and forecasts.

To change the map : click on the green buttons with a black cross to zoom in, on the green button with a dash to zoom out, or on the green arrows for adjacent maps.


METAR-TAF: